createdAt,value
2022-11-10T00:00:14.471Z,82
2022-11-10T00:00:34.562Z,82
2022-11-10T00:01:02.858Z,82
2022-11-10T00:01:34.152Z,82
2022-11-10T00:02:06.641Z,82
2022-11-10T00:02:34.872Z,82
2022-11-10T00:02:53.970Z,82
2022-11-10T00:03:26.010Z,82
2022-11-10T00:03:43.273Z,82
2022-11-10T00:04:14.927Z,82
2022-11-10T00:04:35.385Z,82
2022-11-10T00:05:02.739Z,82
2022-11-10T00:05:34.124Z,82
2022-11-10T00:06:06.190Z,82
2022-11-10T00:06:34.512Z,82
2022-11-10T00:06:54.012Z,82
2022-11-10T00:07:26.828Z,82
2022-11-10T00:07:58.146Z,82
2022-11-10T00:08:30.788Z,82
2022-11-10T00:09:01.969Z,82
2022-11-10T00:09:34.960Z,82
2022-11-10T00:10:06.276Z,82
2022-11-10T00:10:35.204Z,82
2022-11-10T00:10:54.274Z,82
2022-11-10T00:11:26.070Z,82
2022-11-10T00:11:42.693Z,82
2022-11-10T00:12:14.089Z,82
2022-11-10T00:12:34.546Z,82
2022-11-10T00:13:02.672Z,82
2022-11-10T00:13:34.011Z,82
2022-11-10T00:14:06.944Z,82
2022-11-10T00:14:35.009Z,82
2022-11-10T00:14:54.150Z,82
2022-11-10T00:15:26.258Z,82
2022-11-10T00:15:42.590Z,82
2022-11-10T00:16:14.927Z,82
2022-11-10T00:16:35.345Z,82
2022-11-10T00:17:02.232Z,82
2022-11-10T00:17:34.484Z,83
2022-11-10T00:18:05.981Z,83
2022-11-10T00:18:34.630Z,83
2022-11-10T00:18:54.076Z,83
2022-11-10T00:19:27.024Z,83
2022-11-10T00:19:58.122Z,83
2022-11-10T00:20:30.933Z,83
2022-11-10T00:21:02.007Z,83
2022-11-10T00:21:35.381Z,83
2022-11-10T00:22:06.154Z,83
2022-11-10T00:22:34.513Z,83
2022-11-10T00:22:53.951Z,83
2022-11-10T00:23:26.192Z,83
2022-11-10T00:23:59.462Z,83
2022-11-10T00:24:30.062Z,83
2022-11-10T00:25:02.973Z,83
2022-11-10T00:25:34.379Z,83
2022-11-10T00:26:06.691Z,83
2022-11-10T00:26:35.069Z,83
2022-11-10T00:26:54.421Z,83
2022-11-10T00:27:26.217Z,83
2022-11-10T00:27:58.192Z,83
2022-11-10T00:28:30.504Z,83
2022-11-10T00:29:02.229Z,83
2022-11-10T00:29:34.520Z,83
2022-11-10T00:30:06.519Z,83
2022-11-10T00:30:34.752Z,83
2022-11-10T00:30:54.585Z,83
2022-11-10T00:31:27.104Z,83
2022-11-10T00:31:58.307Z,83
2022-11-10T00:32:31.179Z,83
2022-11-10T00:33:02.232Z,83
2022-11-10T00:33:35.544Z,83
2022-11-10T00:34:05.996Z,83
2022-11-10T00:34:35.298Z,83
2022-11-10T00:34:54.143Z,83
2022-11-10T00:35:26.131Z,83
2022-11-10T00:35:42.628Z,83
2022-11-10T00:36:13.978Z,83
2022-11-10T00:36:34.499Z,83
2022-11-10T00:37:02.870Z,83
2022-11-10T00:37:34.100Z,83
2022-11-10T00:38:06.691Z,83
2022-11-10T00:38:34.685Z,83
2022-11-10T00:38:54.007Z,83
2022-11-10T00:39:26.105Z,83
2022-11-10T00:39:58.137Z,83
2022-11-10T00:40:30.172Z,83
2022-11-10T00:41:01.950Z,83
2022-11-10T00:41:34.071Z,83
2022-11-10T00:42:06.254Z,83
2022-11-10T00:42:34.855Z,83
2022-11-10T00:42:53.949Z,83
2022-11-10T00:43:27.083Z,83
2022-11-10T00:43:58.180Z,83
2022-11-10T00:44:30.659Z,83
2022-11-10T00:45:02.138Z,83
2022-11-10T00:45:35.071Z,83
2022-11-10T00:46:06.171Z,83
2022-11-10T00:46:34.516Z,83
2022-11-10T00:46:54.196Z,83
2022-11-10T00:47:26.434Z,83
2022-11-10T00:47:58.968Z,83
2022-11-10T00:48:30.172Z,83
2022-11-10T00:49:02.680Z,84
2022-11-10T00:49:33.987Z,84
2022-11-10T00:50:07.134Z,84
2022-11-10T00:50:34.672Z,84
2022-11-10T00:50:54.229Z,84
2022-11-10T00:51:26.075Z,84
2022-11-10T00:51:42.728Z,84
2022-11-10T00:52:15.056Z,84
2022-11-10T00:52:34.509Z,84
2022-11-10T00:53:02.041Z,84
2022-11-10T00:53:34.292Z,84
2022-11-10T00:54:06.117Z,84
2022-11-10T00:54:34.547Z,84
2022-11-10T00:54:53.931Z,84
2022-11-10T00:55:27.208Z,84
2022-11-10T00:55:58.173Z,84
2022-11-10T00:56:30.703Z,84
2022-11-10T00:57:02.014Z,84
2022-11-10T00:57:35.084Z,84
2022-11-10T00:58:06.112Z,84
2022-11-10T00:58:35.307Z,84
2022-11-10T00:58:53.956Z,84
2022-11-10T00:59:25.955Z,84
2022-11-10T00:59:42.574Z,84
2022-11-10T01:00:14.286Z,84
2022-11-10T01:00:34.836Z,84
2022-11-10T01:01:03.033Z,84
2022-11-10T01:01:34.033Z,84
2022-11-10T01:02:06.758Z,84
2022-11-10T01:02:34.695Z,84
2022-11-10T01:02:54.084Z,84
2022-11-10T01:03:25.945Z,84
2022-11-10T01:03:42.630Z,84
2022-11-10T01:04:15.012Z,84
2022-11-10T01:04:35.342Z,84
2022-11-10T01:05:02.743Z,84
2022-11-10T01:05:34.105Z,84
2022-11-10T01:06:05.995Z,84
2022-11-10T01:06:34.776Z,84
2022-11-10T01:06:54.148Z,84
2022-11-10T01:07:26.774Z,84
2022-11-10T01:07:57.996Z,84
2022-11-10T01:08:30.863Z,84
2022-11-10T01:09:02.064Z,84
2022-11-10T01:09:35.374Z,84
2022-11-10T01:10:06.070Z,84
2022-11-10T01:10:34.497Z,84
2022-11-10T01:10:54.100Z,84
2022-11-10T01:11:26.311Z,84
2022-11-10T01:11:42.479Z,84
2022-11-10T01:12:14.078Z,84
2022-11-10T01:12:34.660Z,84
2022-11-10T01:13:02.906Z,84
2022-11-10T01:13:34.608Z,84
2022-11-10T01:14:06.761Z,84
2022-11-10T01:14:34.502Z,84
2022-11-10T01:14:53.955Z,84
2022-11-10T01:15:27.514Z,84
2022-11-10T01:15:42.581Z,84
2022-11-10T01:16:14.771Z,85
2022-11-10T01:16:34.614Z,85
2022-11-10T01:17:02.165Z,85
2022-11-10T01:17:34.267Z,85
2022-11-10T01:18:05.991Z,85
2022-11-10T01:18:34.488Z,85
2022-11-10T01:18:53.963Z,85
2022-11-10T01:19:26.827Z,85
2022-11-10T01:19:58.116Z,85
2022-11-10T01:20:30.995Z,85
2022-11-10T01:21:01.969Z,85
2022-11-10T01:21:34.991Z,85
2022-11-10T01:22:06.190Z,85
2022-11-10T01:22:35.133Z,85
2022-11-10T01:22:53.928Z,85
2022-11-10T01:23:25.944Z,85
2022-11-10T01:23:42.633Z,85
2022-11-10T01:24:14.096Z,85
2022-11-10T01:24:34.582Z,85
2022-11-10T01:25:02.837Z,85
2022-11-10T01:25:33.947Z,85
2022-11-10T01:26:06.958Z,85
2022-11-10T01:26:34.698Z,85
2022-11-10T01:26:54.314Z,85
2022-11-10T01:27:25.968Z,85
2022-11-10T01:27:42.703Z,85
2022-11-10T01:28:14.944Z,85
2022-11-10T01:28:34.522Z,85
2022-11-10T01:29:02.109Z,85
2022-11-10T01:29:34.164Z,85
2022-11-10T01:30:06.164Z,85
2022-11-10T01:30:34.649Z,85
2022-11-10T01:30:54.214Z,85
2022-11-10T01:31:26.974Z,85
2022-11-10T01:31:57.951Z,85
2022-11-10T01:32:30.938Z,85
2022-11-10T01:33:02.023Z,85
2022-11-10T01:33:34.691Z,85
2022-11-10T01:34:06.020Z,85
2022-11-10T01:34:34.550Z,85
2022-11-10T01:34:53.971Z,85
2022-11-10T01:35:26.271Z,85
2022-11-10T01:35:42.754Z,85
2022-11-10T01:36:14.152Z,85
2022-11-10T01:36:34.720Z,85
2022-11-10T01:37:02.930Z,85
2022-11-10T01:37:34.744Z,85
2022-11-10T01:38:07.150Z,85
2022-11-10T01:38:34.522Z,85
2022-11-10T01:38:53.944Z,85
2022-11-10T01:39:25.952Z,85
2022-11-10T01:39:42.489Z,85
2022-11-10T01:40:14.926Z,85
2022-11-10T01:40:34.817Z,85
2022-11-10T01:41:02.015Z,85
2022-11-10T01:41:33.939Z,85
2022-11-10T01:42:06.111Z,85
2022-11-10T01:42:34.553Z,85
2022-11-10T01:42:53.974Z,85
2022-11-10T01:43:26.860Z,85
2022-11-10T01:43:58.001Z,85
2022-11-10T01:44:30.683Z,85
2022-11-10T01:45:02.243Z,85
2022-11-10T01:45:34.962Z,85
2022-11-10T01:46:06.069Z,86
2022-11-10T01:46:34.613Z,86
2022-11-10T01:46:54.089Z,86
2022-11-10T01:47:25.988Z,86
2022-11-10T01:47:42.709Z,86
2022-11-10T01:48:13.942Z,86
2022-11-10T01:48:35.192Z,86
2022-11-10T01:49:02.673Z,86
2022-11-10T01:49:34.123Z,86
2022-11-10T01:50:06.989Z,86
2022-11-10T01:50:34.673Z,86
2022-11-10T01:51:12.751Z,86
2022-11-10T01:51:26.152Z,86
2022-11-10T01:51:42.527Z,86
2022-11-10T01:52:14.735Z,86
2022-11-10T01:52:34.569Z,86
2022-11-10T01:53:02.109Z,86
2022-11-10T01:53:34.194Z,86
2022-11-10T01:54:05.978Z,86
2022-11-10T01:54:34.521Z,86
2022-11-10T01:54:53.937Z,86
2022-11-10T01:55:27.103Z,86
2022-11-10T01:55:58.406Z,86
2022-11-10T01:56:30.721Z,86
2022-11-10T01:57:01.949Z,86
2022-11-10T01:57:35.495Z,86
2022-11-10T01:58:06.149Z,86
2022-11-10T01:58:34.599Z,86
2022-11-10T01:58:53.935Z,86
2022-11-10T01:59:25.966Z,86
2022-11-10T01:59:42.628Z,86
2022-11-10T02:00:14.301Z,86
2022-11-10T02:00:34.767Z,86
2022-11-10T02:01:02.867Z,86
2022-11-10T02:01:34.023Z,86
2022-11-10T02:02:06.920Z,86
2022-11-10T02:02:34.615Z,86
2022-11-10T02:02:54.153Z,86
2022-11-10T02:03:25.934Z,86
2022-11-10T02:03:42.661Z,86
2022-11-10T02:04:14.964Z,86
2022-11-10T02:04:34.601Z,86
2022-11-10T02:05:02.382Z,86
2022-11-10T02:05:34.143Z,86
2022-11-10T02:06:05.993Z,86
2022-11-10T02:06:34.963Z,86
2022-11-10T02:06:54.146Z,86
2022-11-10T02:07:26.744Z,86
2022-11-10T02:07:58.303Z,86
2022-11-10T02:08:30.810Z,86
2022-11-10T02:09:02.075Z,86
2022-11-10T02:09:36.483Z,86
2022-11-10T02:10:06.381Z,86
2022-11-10T02:10:34.510Z,86
2022-11-10T02:10:54.039Z,86
2022-11-10T02:11:26.044Z,86
2022-11-10T02:11:43.168Z,86
2022-11-10T02:12:14.181Z,86
2022-11-10T02:12:34.744Z,86
2022-11-10T02:13:02.883Z,86
2022-11-10T02:13:34.743Z,86
2022-11-10T02:14:06.916Z,86
2022-11-10T02:14:34.490Z,86
2022-11-10T02:14:53.983Z,86
2022-11-10T02:15:26.174Z,86
2022-11-10T02:15:42.662Z,86
2022-11-10T02:16:15.059Z,86
2022-11-10T02:16:34.660Z,86
2022-11-10T02:17:01.929Z,86
2022-11-10T02:17:34.014Z,86
2022-11-10T02:18:06.021Z,86
2022-11-10T02:18:34.737Z,87
2022-11-10T02:18:54.180Z,87
2022-11-10T02:19:26.942Z,87
2022-11-10T02:19:57.948Z,87
2022-11-10T02:20:31.223Z,87
2022-11-10T02:21:02.143Z,87
2022-11-10T02:21:36.639Z,87
2022-11-10T02:22:06.007Z,87
2022-11-10T02:22:34.623Z,87
2022-11-10T02:22:54.031Z,87
2022-11-10T02:23:26.162Z,87
2022-11-10T02:23:42.826Z,87
2022-11-10T02:24:13.954Z,87
2022-11-10T02:24:34.734Z,87
2022-11-10T02:25:03.165Z,87
2022-11-10T02:25:34.109Z,86
2022-11-10T02:26:06.709Z,86
2022-11-10T02:26:34.508Z,86
2022-11-10T02:26:53.937Z,87
2022-11-10T02:27:26.041Z,87
2022-11-10T02:27:42.528Z,87
2022-11-10T02:28:14.803Z,87
2022-11-10T02:28:35.046Z,87
2022-11-10T02:29:02.016Z,87
2022-11-10T02:29:34.011Z,87
2022-11-10T02:30:06.352Z,87
2022-11-10T02:30:35.271Z,87
2022-11-10T02:30:54.027Z,87
2022-11-10T02:31:27.232Z,87
2022-11-10T02:31:57.955Z,87
2022-11-10T02:32:30.771Z,87
2022-11-10T02:33:02.152Z,87
2022-11-10T02:33:35.761Z,87
2022-11-10T02:34:06.137Z,87
2022-11-10T02:34:35.215Z,87
2022-11-10T02:34:54.406Z,87
2022-11-10T02:35:26.099Z,87
2022-11-10T02:35:42.619Z,87
2022-11-10T02:36:13.944Z,87
2022-11-10T02:36:34.590Z,87
2022-11-10T02:37:02.645Z,87
2022-11-10T02:37:33.982Z,87
2022-11-10T02:38:06.959Z,87
2022-11-10T02:38:34.726Z,87
2022-11-10T02:38:54.138Z,87
2022-11-10T02:39:26.276Z,87
2022-11-10T02:39:58.014Z,87
2022-11-10T02:40:30.091Z,87
2022-11-10T02:41:02.067Z,87
2022-11-10T02:41:34.199Z,87
2022-11-10T02:42:06.047Z,87
2022-11-10T02:42:34.602Z,87
2022-11-10T02:42:53.940Z,87
2022-11-10T02:43:26.860Z,87
2022-11-10T02:43:58.127Z,87
2022-11-10T02:44:31.124Z,87
2022-11-10T02:45:02.788Z,87
2022-11-10T02:45:35.432Z,87
2022-11-10T02:46:06.110Z,87
2022-11-10T02:46:34.531Z,87
2022-11-10T02:46:53.923Z,87
2022-11-10T02:47:25.986Z,87
2022-11-10T02:47:42.453Z,87
2022-11-10T02:48:14.119Z,88
2022-11-10T02:48:34.807Z,87
2022-11-10T02:49:03.149Z,87
2022-11-10T02:49:34.489Z,87
2022-11-10T02:50:07.420Z,87
2022-11-10T02:50:34.584Z,87
2022-11-10T02:50:54.054Z,88
2022-11-10T02:51:25.928Z,87
2022-11-10T02:51:42.479Z,87
2022-11-10T02:52:14.880Z,87
2022-11-10T02:52:35.047Z,87
2022-11-10T02:53:02.089Z,87
2022-11-10T02:53:33.937Z,87
2022-11-10T02:54:06.084Z,87
2022-11-10T02:54:34.677Z,87
2022-11-10T02:54:54.116Z,87
2022-11-10T02:55:26.991Z,88
2022-11-10T02:55:57.980Z,88
2022-11-10T02:56:30.613Z,87
2022-11-10T02:57:01.985Z,88
2022-11-10T02:57:34.981Z,88
2022-11-10T02:58:06.138Z,88
2022-11-10T02:58:34.595Z,88
2022-11-10T02:58:53.897Z,88
2022-11-10T02:59:25.949Z,88
2022-11-10T02:59:42.578Z,88
2022-11-10T03:00:14.324Z,88
2022-11-10T03:00:34.687Z,88
2022-11-10T03:01:02.867Z,88
2022-11-10T03:01:34.042Z,88
2022-11-10T03:02:06.641Z,88
2022-11-10T03:02:34.730Z,88
2022-11-10T03:02:54.102Z,88
2022-11-10T03:03:25.964Z,88
2022-11-10T03:03:42.629Z,88
2022-11-10T03:04:15.259Z,88
2022-11-10T03:04:35.494Z,88
2022-11-10T03:05:02.288Z,88
2022-11-10T03:05:33.961Z,88
2022-11-10T03:06:05.994Z,88
2022-11-10T03:06:34.744Z,88
2022-11-10T03:06:54.081Z,88
2022-11-10T03:07:26.693Z,88
2022-11-10T03:07:57.924Z,88
2022-11-10T03:08:30.875Z,88
2022-11-10T03:09:02.035Z,88
2022-11-10T03:09:34.854Z,88
2022-11-10T03:10:06.099Z,88
2022-11-10T03:10:35.252Z,88
2022-11-10T03:10:54.071Z,88
2022-11-10T03:11:29.430Z,88
2022-11-10T03:11:42.476Z,88
2022-11-10T03:12:13.925Z,88
2022-11-10T03:12:34.742Z,88
2022-11-10T03:13:02.908Z,88
2022-11-10T03:13:51.666Z,88
2022-11-10T03:14:06.773Z,88
2022-11-10T03:14:34.783Z,88
2022-11-10T03:14:53.933Z,88
2022-11-10T03:15:26.201Z,88
2022-11-10T03:15:42.457Z,88
2022-11-10T03:16:14.702Z,88
2022-11-10T03:16:34.713Z,88
2022-11-10T03:17:01.943Z,88
2022-11-10T03:17:33.922Z,88
2022-11-10T03:18:06.095Z,88
2022-11-10T03:18:43.894Z,88
2022-11-10T03:19:10.162Z,88
2022-11-10T03:19:35.861Z,88
2022-11-10T03:19:57.911Z,88
2022-11-10T03:20:30.268Z,88
2022-11-10T03:21:02.151Z,88
2022-11-10T03:21:34.011Z,88
2022-11-10T03:22:06.026Z,88
2022-11-10T03:22:34.749Z,88
2022-11-10T03:22:55.056Z,88
2022-11-10T03:23:26.061Z,88
2022-11-10T03:23:42.580Z,88
2022-11-10T03:24:13.909Z,88
2022-11-10T03:24:35.271Z,88
2022-11-10T03:25:03.184Z,88
2022-11-10T03:25:34.075Z,88
2022-11-10T03:26:06.733Z,88
2022-11-10T03:26:34.696Z,88
2022-11-10T03:26:53.997Z,88
2022-11-10T03:27:26.107Z,88
2022-11-10T03:27:42.435Z,88
2022-11-10T03:28:14.841Z,88
2022-11-10T03:28:42.652Z,88
2022-11-10T03:29:02.400Z,88
2022-11-10T03:29:34.326Z,88
2022-11-10T03:30:06.296Z,88
2022-11-10T03:30:34.638Z,88
2022-11-10T03:30:54.003Z,88
2022-11-10T03:31:26.992Z,88
2022-11-10T03:31:58.087Z,88
2022-11-10T03:32:30.733Z,88
2022-11-10T03:33:02.055Z,88
2022-11-10T03:33:35.413Z,88
2022-11-10T03:34:06.129Z,88
2022-11-10T03:34:35.046Z,88
2022-11-10T03:34:53.930Z,88
2022-11-10T03:35:26.103Z,88
2022-11-10T03:35:42.653Z,88
2022-11-10T03:36:14.144Z,88
2022-11-10T03:36:34.657Z,88
2022-11-10T03:37:02.969Z,88
2022-11-10T03:37:34.731Z,88
2022-11-10T03:38:11.757Z,88
2022-11-10T03:38:35.302Z,88
2022-11-10T03:38:54.120Z,88
2022-11-10T03:39:26.651Z,88
2022-11-10T03:39:57.906Z,87
2022-11-10T03:40:31.072Z,87
2022-11-10T03:41:19.697Z,88
2022-11-10T03:41:34.745Z,88
2022-11-10T03:42:05.915Z,87
2022-11-10T03:42:34.762Z,87
2022-11-10T03:42:54.094Z,87
2022-11-10T03:43:26.062Z,87
2022-11-10T03:43:42.613Z,87
2022-11-10T03:44:13.953Z,87
2022-11-10T03:44:34.613Z,87
2022-11-10T03:45:03.259Z,87
2022-11-10T03:45:34.098Z,88
2022-11-10T03:46:06.834Z,88
2022-11-10T03:46:34.564Z,88
2022-11-10T03:46:53.896Z,88
2022-11-10T03:47:26.121Z,88
2022-11-10T03:47:42.412Z,88
2022-11-10T03:48:14.754Z,88
2022-11-10T03:48:34.788Z,88
2022-11-10T03:49:01.936Z,88
2022-11-10T03:49:34.035Z,88
2022-11-10T03:50:06.285Z,88
2022-11-10T03:50:34.553Z,88
2022-11-10T03:50:54.043Z,88
2022-11-10T03:51:26.948Z,88
2022-11-10T03:51:58.135Z,88
2022-11-10T03:52:30.685Z,88
2022-11-10T03:53:01.922Z,88
2022-11-10T03:53:35.106Z,88
2022-11-10T03:54:06.013Z,88
2022-11-10T03:54:34.716Z,88
2022-11-10T03:54:58.043Z,88
2022-11-10T03:55:26.105Z,88
2022-11-10T03:55:42.614Z,88
2022-11-10T03:56:14.026Z,88
2022-11-10T03:56:34.524Z,88
2022-11-10T03:57:02.948Z,88
2022-11-10T03:57:33.975Z,88
2022-11-10T03:58:06.867Z,88
2022-11-10T03:58:34.727Z,88
2022-11-10T03:58:54.084Z,88
2022-11-10T03:59:26.049Z,88
2022-11-10T03:59:42.516Z,88
2022-11-10T04:00:15.108Z,88
2022-11-10T04:00:35.182Z,88
2022-11-10T04:01:02.060Z,88
2022-11-10T04:01:34.634Z,88
2022-11-10T04:02:06.211Z,88
2022-11-10T04:02:34.603Z,88
2022-11-10T04:02:53.929Z,88
2022-11-10T04:03:27.086Z,88
2022-11-10T04:03:58.055Z,88
2022-11-10T04:04:30.881Z,88
2022-11-10T04:05:02.140Z,88
2022-11-10T04:05:35.352Z,88
2022-11-10T04:06:06.109Z,88
2022-11-10T04:06:34.620Z,88
2022-11-10T04:06:53.953Z,88
2022-11-10T04:07:26.023Z,88
2022-11-10T04:07:42.445Z,88
2022-11-10T04:08:14.084Z,88
2022-11-10T04:08:34.692Z,88
2022-11-10T04:09:02.769Z,88
2022-11-10T04:09:33.965Z,88
2022-11-10T04:10:07.159Z,88
2022-11-10T04:10:35.079Z,88
2022-11-10T04:10:54.202Z,88
2022-11-10T04:11:25.936Z,88
2022-11-10T04:11:42.662Z,88
2022-11-10T04:12:14.856Z,88
2022-11-10T04:12:34.513Z,88
2022-11-10T04:13:02.515Z,88
2022-11-10T04:13:33.938Z,88
2022-11-10T04:14:05.937Z,88
2022-11-10T04:14:34.758Z,88
2022-11-10T04:14:54.056Z,88
2022-11-10T04:15:27.137Z,88
2022-11-10T04:15:57.981Z,88
2022-11-10T04:16:30.826Z,88
2022-11-10T04:17:02.083Z,88
2022-11-10T04:17:35.592Z,88
2022-11-10T04:18:06.409Z,88
2022-11-10T04:18:34.843Z,88
2022-11-10T04:18:53.928Z,88
2022-11-10T04:19:26.137Z,88
2022-11-10T04:19:42.421Z,88
2022-11-10T04:20:14.164Z,88
2022-11-10T04:20:34.706Z,88
2022-11-10T04:21:02.994Z,88
2022-11-10T04:21:34.037Z,88
2022-11-10T04:22:06.813Z,88
2022-11-10T04:22:34.547Z,88
2022-11-10T04:22:53.936Z,88
2022-11-10T04:23:26.069Z,88
2022-11-10T04:23:42.514Z,88
2022-11-10T04:24:14.992Z,88
2022-11-10T04:24:35.127Z,88
2022-11-10T04:25:02.586Z,88
2022-11-10T04:25:34.061Z,88
2022-11-10T04:26:06.192Z,88
2022-11-10T04:26:35.091Z,88
2022-11-10T04:26:54.522Z,88
2022-11-10T04:27:27.271Z,88
2022-11-10T04:27:58.045Z,88
2022-11-10T04:28:30.738Z,88
2022-11-10T04:29:01.947Z,88
2022-11-10T04:29:35.225Z,88
2022-11-10T04:30:06.198Z,88
2022-11-10T04:30:34.727Z,88
2022-11-10T04:30:54.250Z,88
2022-11-10T04:31:26.052Z,88
2022-11-10T04:31:42.873Z,88
2022-11-10T04:32:14.130Z,88
2022-11-10T04:32:34.605Z,88
2022-11-10T04:33:02.765Z,88
2022-11-10T04:33:33.947Z,88
2022-11-10T04:34:06.920Z,88
2022-11-10T04:34:34.768Z,88
2022-11-10T04:34:54.109Z,88
2022-11-10T04:35:26.053Z,88
2022-11-10T04:35:42.420Z,88
2022-11-10T04:36:14.916Z,88
2022-11-10T04:36:34.707Z,88
2022-11-10T04:37:01.968Z,88
2022-11-10T04:37:34.891Z,88
2022-11-10T04:38:06.036Z,88
2022-11-10T04:38:34.732Z,88
2022-11-10T04:38:54.061Z,88
2022-11-10T04:39:26.780Z,88
2022-11-10T04:39:57.981Z,88
2022-11-10T04:40:30.945Z,88
2022-11-10T04:41:02.181Z,88
2022-11-10T04:41:34.838Z,88
2022-11-10T04:42:05.960Z,88
2022-11-10T04:42:35.612Z,88
2022-11-10T04:42:54.127Z,88
2022-11-10T04:43:26.101Z,88
2022-11-10T04:43:43.413Z,88
2022-11-10T04:44:14.002Z,88
2022-11-10T04:44:34.641Z,88
2022-11-10T04:45:02.389Z,88
2022-11-10T04:45:34.110Z,88
2022-11-10T04:46:07.710Z,88
2022-11-10T04:46:34.683Z,88
2022-11-10T04:46:54.033Z,88
2022-11-10T04:47:26.309Z,88
2022-11-10T04:47:42.463Z,88
2022-11-10T04:48:15.030Z,88
2022-11-10T04:48:34.970Z,88
2022-11-10T04:49:02.606Z,88
2022-11-10T04:49:34.264Z,88
2022-11-10T04:50:06.534Z,88
2022-11-10T04:50:35.191Z,88
2022-11-10T04:50:54.072Z,88
2022-11-10T04:51:26.821Z,88
2022-11-10T04:51:58.329Z,88
2022-11-10T04:52:30.647Z,88
2022-11-10T04:53:02.005Z,88
2022-11-10T04:53:35.359Z,88
2022-11-10T04:54:06.145Z,88
2022-11-10T04:54:34.562Z,88
2022-11-10T04:54:54.101Z,88
2022-11-10T04:55:26.062Z,88
2022-11-10T04:55:42.601Z,88
2022-11-10T04:56:14.009Z,88
2022-11-10T04:56:34.542Z,88
2022-11-10T04:57:03.037Z,88
2022-11-10T04:57:34.204Z,88
2022-11-10T04:58:06.757Z,88
2022-11-10T04:58:34.755Z,88
2022-11-10T04:58:54.142Z,88
2022-11-10T04:59:26.157Z,88
2022-11-10T04:59:42.486Z,88
2022-11-10T05:00:14.897Z,88
2022-11-10T05:00:34.629Z,88
2022-11-10T05:01:02.177Z,88
2022-11-10T05:01:34.073Z,88
2022-11-10T05:02:06.016Z,88
2022-11-10T05:02:39.452Z,88
2022-11-10T05:02:53.933Z,88
2022-11-10T05:03:26.896Z,88
2022-11-10T05:03:58.131Z,88
2022-11-10T05:04:30.695Z,88
2022-11-10T05:05:02.214Z,88
2022-11-10T05:05:34.033Z,88
2022-11-10T05:06:06.181Z,88
2022-11-10T05:06:35.410Z,88
2022-11-10T05:06:54.054Z,88
2022-11-10T05:07:27.149Z,88
2022-11-10T05:07:58.205Z,88
2022-11-10T05:08:31.452Z,88
2022-11-10T05:09:02.022Z,88
2022-11-10T05:09:34.823Z,88
2022-11-10T05:10:06.097Z,88
2022-11-10T05:10:35.326Z,88
2022-11-10T05:10:54.279Z,88
2022-11-10T05:11:26.008Z,88
2022-11-10T05:11:43.713Z,88
2022-11-10T05:12:18.518Z,88
2022-11-10T05:12:34.595Z,88
2022-11-10T05:13:02.118Z,88
2022-11-10T05:13:34.195Z,88
2022-11-10T05:14:06.728Z,88
2022-11-10T05:14:34.522Z,88
2022-11-10T05:14:53.942Z,88
2022-11-10T05:15:26.317Z,88
2022-11-10T05:15:42.406Z,88
2022-11-10T05:16:14.830Z,88
2022-11-10T05:16:34.691Z,88
2022-11-10T05:17:01.958Z,88
2022-11-10T05:17:34.871Z,88
2022-11-10T05:18:06.114Z,88
2022-11-10T05:18:34.603Z,88
2022-11-10T05:18:53.974Z,88
2022-11-10T05:19:26.991Z,88
2022-11-10T05:19:58.119Z,88
2022-11-10T05:20:30.966Z,88
2022-11-10T05:21:02.028Z,88
2022-11-10T05:21:35.098Z,88
2022-11-10T05:22:06.161Z,88
2022-11-10T05:22:34.590Z,88
2022-11-10T05:22:53.920Z,88
2022-11-10T05:23:25.946Z,88
2022-11-10T05:23:42.468Z,88
2022-11-10T05:24:14.175Z,88
2022-11-10T05:24:34.680Z,88
2022-11-10T05:25:03.067Z,88
2022-11-10T05:25:34.025Z,88
2022-11-10T05:26:07.130Z,88
2022-11-10T05:26:34.763Z,88
2022-11-10T05:26:54.295Z,88
2022-11-10T05:27:25.966Z,88
2022-11-10T05:27:42.627Z,88
2022-11-10T05:28:14.884Z,88
2022-11-10T05:28:34.548Z,88
2022-11-10T05:29:02.489Z,88
2022-11-10T05:29:33.936Z,88
2022-11-10T05:30:06.087Z,88
2022-11-10T05:30:34.799Z,88
2022-11-10T05:30:54.171Z,88
2022-11-10T05:31:27.068Z,88
2022-11-10T05:31:58.213Z,88
2022-11-10T05:32:31.035Z,88
2022-11-10T05:33:02.144Z,88
2022-11-10T05:33:34.912Z,88
2022-11-10T05:34:06.037Z,88
2022-11-10T05:34:35.712Z,88
2022-11-10T05:34:54.040Z,88
2022-11-10T05:35:26.265Z,88
2022-11-10T05:35:43.543Z,88
2022-11-10T05:36:13.932Z,88
2022-11-10T05:36:34.525Z,88
2022-11-10T05:37:02.080Z,88
2022-11-10T05:37:34.250Z,88
2022-11-10T05:38:07.310Z,88
2022-11-10T05:38:37.713Z,88
2022-11-10T05:38:53.980Z,88
2022-11-10T05:39:26.063Z,88
2022-11-10T05:39:42.407Z,88
2022-11-10T05:40:15.547Z,88
2022-11-10T05:40:34.601Z,88
2022-11-10T05:41:02.076Z,88
2022-11-10T05:41:34.389Z,88
2022-11-10T05:42:05.958Z,88
2022-11-10T05:42:34.648Z,88
2022-11-10T05:42:53.927Z,88
2022-11-10T05:43:27.022Z,88
2022-11-10T05:43:58.112Z,88
2022-11-10T05:44:30.886Z,88
2022-11-10T05:45:02.209Z,88
2022-11-10T05:45:35.589Z,88
2022-11-10T05:46:06.303Z,88
2022-11-10T05:46:34.576Z,88
2022-11-10T05:46:53.937Z,88
2022-11-10T05:47:26.005Z,88
2022-11-10T05:47:42.482Z,88
2022-11-10T05:48:14.780Z,88
2022-11-10T05:48:35.057Z,88
2022-11-10T05:49:01.910Z,88
2022-11-10T05:49:34.065Z,88
2022-11-10T05:50:06.317Z,88
2022-11-10T05:50:34.585Z,88
2022-11-10T05:50:54.088Z,88
2022-11-10T05:51:26.947Z,88
2022-11-10T05:51:58.153Z,88
2022-11-10T05:52:30.618Z,88
2022-11-10T05:53:01.995Z,88
2022-11-10T05:53:34.902Z,88
2022-11-10T05:54:06.043Z,89
2022-11-10T05:54:35.388Z,89
2022-11-10T05:54:54.129Z,89
2022-11-10T05:55:26.073Z,89
2022-11-10T05:55:43.283Z,89
2022-11-10T05:56:13.997Z,89
2022-11-10T05:56:34.699Z,89
2022-11-10T05:57:02.122Z,89
2022-11-10T05:57:34.629Z,89
2022-11-10T05:58:06.898Z,89
2022-11-10T05:58:34.712Z,89
2022-11-10T05:58:54.118Z,89
2022-11-10T05:59:26.112Z,89
2022-11-10T05:59:42.566Z,89
2022-11-10T06:00:15.197Z,89
2022-11-10T06:00:34.549Z,89
2022-11-10T06:01:02.204Z,89
2022-11-10T06:01:34.096Z,89
2022-11-10T06:02:05.998Z,89
2022-11-10T06:02:34.612Z,89
2022-11-10T06:02:53.937Z,89
2022-11-10T06:03:26.926Z,89
2022-11-10T06:03:58.145Z,89
2022-11-10T06:04:30.703Z,89
2022-11-10T06:05:02.206Z,89
2022-11-10T06:05:34.423Z,89
2022-11-10T06:06:06.173Z,89
2022-11-10T06:06:35.181Z,89
2022-11-10T06:06:54.012Z,89
2022-11-10T06:07:26.668Z,89
2022-11-10T06:07:58.082Z,89
2022-11-10T06:08:30.674Z,89
2022-11-10T06:09:02.014Z,89
2022-11-10T06:09:34.950Z,89
2022-11-10T06:10:06.187Z,89
2022-11-10T06:10:35.634Z,89
2022-11-10T06:10:54.207Z,89
2022-11-10T06:11:25.926Z,89
2022-11-10T06:11:43.255Z,89
2022-11-10T06:12:14.068Z,89
2022-11-10T06:12:35.318Z,89
2022-11-10T06:13:02.159Z,89
2022-11-10T06:13:35.547Z,89
2022-11-10T06:14:06.538Z,89
2022-11-10T06:14:34.548Z,89
2022-11-10T06:14:53.914Z,89
2022-11-10T06:15:26.152Z,89
2022-11-10T06:15:47.539Z,89
2022-11-10T06:16:14.561Z,89
2022-11-10T06:16:34.819Z,89
2022-11-10T06:17:01.954Z,89
2022-11-10T06:17:34.034Z,89
2022-11-10T06:18:06.124Z,89
2022-11-10T06:18:34.691Z,89
2022-11-10T06:18:53.944Z,89
2022-11-10T06:19:26.916Z,89
2022-11-10T06:19:58.064Z,89
2022-11-10T06:20:30.822Z,89
2022-11-10T06:21:02.529Z,89
2022-11-10T06:21:34.898Z,89
2022-11-10T06:22:07.832Z,89
2022-11-10T06:22:35.428Z,89
2022-11-10T06:22:54.159Z,89
2022-11-10T06:23:26.062Z,89
2022-11-10T06:23:43.129Z,89
2022-11-10T06:24:14.158Z,89
2022-11-10T06:24:34.878Z,89
2022-11-10T06:25:02.288Z,89
2022-11-10T06:25:33.990Z,89
2022-11-10T06:26:06.817Z,89
2022-11-10T06:26:34.745Z,89
2022-11-10T06:26:54.069Z,89
2022-11-10T06:27:26.134Z,89
2022-11-10T06:27:42.621Z,89
2022-11-10T06:28:14.924Z,89
2022-11-10T06:28:35.030Z,89
2022-11-10T06:29:02.171Z,89
2022-11-10T06:29:34.223Z,89
2022-11-10T06:30:06.689Z,89
2022-11-10T06:30:34.778Z,89
2022-11-10T06:30:54.214Z,89
2022-11-10T06:31:26.703Z,89
2022-11-10T06:31:57.962Z,89
2022-11-10T06:32:30.887Z,89
2022-11-10T06:33:02.286Z,89
2022-11-10T06:33:34.928Z,89
2022-11-10T06:34:06.023Z,89
2022-11-10T06:34:35.256Z,89
2022-11-10T06:34:59.279Z,89
2022-11-10T06:35:26.233Z,89
2022-11-10T06:35:43.322Z,89
2022-11-10T06:36:13.954Z,89
2022-11-10T06:36:34.852Z,89
2022-11-10T06:37:02.223Z,89
2022-11-10T06:37:34.199Z,89
2022-11-10T06:38:07.123Z,89